Terminal Aerodrome Forecast
Issued by NWS

Home | Current Version | Previous Version | Text Only | Print | Product List | Glossary On
Versions: 1 2 3 4 5 6 7 8 9 10 11 12 13 14 15 16
000
FTUS44 KJAN 301300 AAB
TAFHKS
TAF AMD
KHKS 301335Z 3014/3112 17004KT P6SM BKN006 OVC100
     FM301700 16006KT P6SM VCSH SCT015 BKN035
     FM301900 17008KT P6SM SHRA VCTS OVC015CB
     FM310000 16005KT P6SM VCSH BKN040
     FM310200 15005KT P6SM SCT030 BKN100
     FM310500 16004KT P6SM OVC015=

USA.gov is the U.S. government's official web portal to all federal, state and local government web resources and services.